sensor_id;sensor_type;location;lat;lon;timestamp;pressure;altitude;pressure_sealevel;temperature;humidity
62800;BME280;48842;51.046;13.796;2023-06-19T00:00:32;100138.72;;;21.43;52.52
62800;BME280;48842;51.046;13.796;2023-06-19T00:02:58;100141.53;;;21.40;52.59
62800;BME280;48842;51.046;13.796;2023-06-19T00:05:23;100147.00;;;21.37;52.51
62800;BME280;48842;51.046;13.796;2023-06-19T00:07:50;100140.94;;;21.34;52.56
62800;BME280;48842;51.046;13.796;2023-06-19T00:10:15;100142.88;;;21.30;52.81
62800;BME280;48842;51.046;13.796;2023-06-19T00:12:40;100143.94;;;21.26;53.01
62800;BME280;48842;51.046;13.796;2023-06-19T00:15:06;100138.72;;;21.23;52.93
62800;BME280;48842;51.046;13.796;2023-06-19T00:17:32;100136.22;;;21.20;53.10
62800;BME280;48842;51.046;13.796;2023-06-19T00:19:57;100129.22;;;21.17;53.22
62800;BME280;48842;51.046;13.796;2023-06-19T00:22:24;100123.16;;;21.14;53.18
62800;BME280;48842;51.046;13.796;2023-06-19T00:24:51;100128.63;;;21.10;53.39
62800;BME280;48842;51.046;13.796;2023-06-19T00:27:17;100121.63;;;21.08;53.19
62800;BME280;48842;51.046;13.796;2023-06-19T00:29:42;100127.94;;;21.05;53.71
62800;BME280;48842;51.046;13.796;2023-06-19T00:32:07;100130.75;;;21.02;53.59
62800;BME280;48842;51.046;13.796;2023-06-19T00:34:32;100129.03;;;21.01;53.86
62800;BME280;48842;51.046;13.796;2023-06-19T00:36:58;100132.69;;;20.99;53.46
62800;BME280;48842;51.046;13.796;2023-06-19T00:39:24;100130.16;;;20.96;53.91
62800;BME280;48842;51.046;13.796;2023-06-19T00:41:51;100129.28;;;20.95;53.60
62800;BME280;48842;51.046;13.796;2023-06-19T00:44:16;100129.28;;;20.95;53.86
62800;BME280;48842;51.046;13.796;2023-06-19T00:46:42;100129.28;;;20.95;53.64
62800;BME280;48842;51.046;13.796;2023-06-19T00:49:07;100133.75;;;20.95;53.86
62800;BME280;48842;51.046;13.796;2023-06-19T00:51:33;100132.00;;;20.93;54.26
62800;BME280;48842;51.046;13.796;2023-06-19T00:53:58;100124.97;;;20.92;54.41
62800;BME280;48842;51.046;13.796;2023-06-19T00:56:24;100130.41;;;20.89;54.27
62800;BME280;48842;51.046;13.796;2023-06-19T00:58:51;100126.09;;;20.87;54.43
62800;BME280;48842;51.046;13.796;2023-06-19T01:01:17;100120.91;;;20.84;54.44
62800;BME280;48842;51.046;13.796;2023-06-19T01:03:43;100112.22;;;20.79;54.66
62800;BME280;48842;51.046;13.796;2023-06-19T01:06:19;100115.03;;;20.75;54.48
62800;BME280;48842;51.046;13.796;2023-06-19T01:08:59;100115.28;;;20.69;54.75
62800;BME280;48842;51.046;13.796;2023-06-19T01:11:30;100114.47;;;20.67;54.93
62800;BME280;48842;51.046;13.796;2023-06-19T01:14:08;100119.88;;;20.64;54.58
62800;BME280;48842;51.046;13.796;2023-06-19T01:16:34;100116.56;;;20.59;54.79
62800;BME280;48842;51.046;13.796;2023-06-19T01:19:00;100118.41;;;20.57;54.88
62800;BME280;48842;51.046;13.796;2023-06-19T01:21:25;100123.84;;;20.54;55.22
62800;BME280;48842;51.046;13.796;2023-06-19T01:23:51;100114.19;;;20.51;55.25
62800;BME280;48842;51.046;13.796;2023-06-19T01:26:16;100115.22;;;20.49;54.87
62800;BME280;48842;51.046;13.796;2023-06-19T01:28:43;100107.22;;;20.49;55.11
62800;BME280;48842;51.046;13.796;2023-06-19T01:31:20;100105.47;;;20.48;55.40
62800;BME280;48842;51.046;13.796;2023-06-19T01:33:49;100108.22;;;20.46;55.19
62800;BME280;48842;51.046;13.796;2023-06-19T01:36:17;100100.22;;;20.46;55.06
62800;BME280;48842;51.046;13.796;2023-06-19T01:38:44;100102.00;;;20.46;55.40
62800;BME280;48842;51.046;13.796;2023-06-19T01:41:10;100096.75;;;20.44;55.38
62800;BME280;48842;51.046;13.796;2023-06-19T01:43:37;100098.56;;;20.44;55.22
62800;BME280;48842;51.046;13.796;2023-06-19T01:46:03;100099.47;;;20.43;55.38
62800;BME280;48842;51.046;13.796;2023-06-19T01:48:28;100095.94;;;20.42;55.01
62800;BME280;48842;51.046;13.796;2023-06-19T01:50:53;100091.63;;;20.39;55.06
62800;BME280;48842;51.046;13.796;2023-06-19T01:53:19;100091.69;;;20.38;55.17
62800;BME280;48842;51.046;13.796;2023-06-19T01:55:44;100084.63;;;20.37;55.11
62800;BME280;48842;51.046;13.796;2023-06-19T01:58:09;100089.94;;;20.37;55.18
62800;BME280;48842;51.046;13.796;2023-06-19T02:00:35;100092.66;;;20.35;55.19
62800;BME280;48842;51.046;13.796;2023-06-19T02:03:01;100090.13;;;20.32;55.01
62800;BME280;48842;51.046;13.796;2023-06-19T02:05:26;100085.75;;;20.31;55.23
62800;BME280;48842;51.046;13.796;2023-06-19T02:07:51;100086.75;;;20.29;55.49
62800;BME280;48842;51.046;13.796;2023-06-19T02:10:16;100081.56;;;20.26;55.28
62800;BME280;48842;51.046;13.796;2023-06-19T02:12:41;100079.81;;;20.25;55.12
62800;BME280;48842;51.046;13.796;2023-06-19T02:15:07;100081.69;;;20.22;55.14
62800;BME280;48842;51.046;13.796;2023-06-19T02:17:32;100074.69;;;20.20;55.54
62800;BME280;48842;51.046;13.796;2023-06-19T02:19:58;100068.59;;;20.16;55.15
62800;BME280;48842;51.046;13.796;2023-06-19T02:22:23;100065.09;;;20.16;55.41
62800;BME280;48842;51.046;13.796;2023-06-19T02:24:48;100073.13;;;20.14;55.29
62800;BME280;48842;51.046;13.796;2023-06-19T02:27:14;100081.19;;;20.13;55.21
62800;BME280;48842;51.046;13.796;2023-06-19T02:29:40;100072.41;;;20.11;55.33
62800;BME280;48842;51.046;13.796;2023-06-19T02:32:06;100083.97;;;20.10;55.67
62800;BME280;48842;51.046;13.796;2023-06-19T02:34:31;100078.78;;;20.07;55.69
62800;BME280;48842;51.046;13.796;2023-06-19T02:36:57;100085.00;;;20.05;55.77
62800;BME280;48842;51.046;13.796;2023-06-19T02:39:23;100077.94;;;20.04;55.57
62800;BME280;48842;51.046;13.796;2023-06-19T02:41:48;100070.03;;;20.03;55.49
62800;BME280;48842;51.046;13.796;2023-06-19T02:44:14;100071.84;;;20.02;55.71
62800;BME280;48842;51.046;13.796;2023-06-19T02:46:39;100071.97;;;19.99;55.88
62800;BME280;48842;51.046;13.796;2023-06-19T02:49:04;100067.56;;;19.98;55.89
62800;BME280;48842;51.046;13.796;2023-06-19T02:51:30;100069.41;;;19.96;55.86
62800;BME280;48842;51.046;13.796;2023-06-19T02:53:55;100061.44;;;19.96;55.84
62800;BME280;48842;51.046;13.796;2023-06-19T02:56:21;100071.25;;;19.94;56.09
62800;BME280;48842;51.046;13.796;2023-06-19T02:58:47;100064.22;;;19.93;56.24
62800;BME280;48842;51.046;13.796;2023-06-19T03:01:12;100065.16;;;19.92;56.31
62800;BME280;48842;51.046;13.796;2023-06-19T03:03:37;100071.38;;;19.91;56.42
62800;BME280;48842;51.046;13.796;2023-06-19T03:06:06;100064.31;;;19.90;56.48
62800;BME280;48842;51.046;13.796;2023-06-19T03:08:36;100055.38;;;19.93;56.46
62800;BME280;48842;51.046;13.796;2023-06-19T03:11:01;100058.91;;;19.93;56.24
62800;BME280;48842;51.046;13.796;2023-06-19T03:13:31;100063.16;;;19.97;56.28
62800;BME280;48842;51.046;13.796;2023-06-19T03:15:56;100055.13;;;19.99;56.21
62800;BME280;48842;51.046;13.796;2023-06-19T03:18:22;100055.06;;;20.00;55.89
62800;BME280;48842;51.046;13.796;2023-06-19T03:20:47;100048.81;;;20.01;56.11
62800;BME280;48842;51.046;13.796;2023-06-19T03:23:13;100048.75;;;20.03;56.14
62800;BME280;48842;51.046;13.796;2023-06-19T03:25:38;100049.63;;;20.03;56.03
62800;BME280;48842;51.046;13.796;2023-06-19T03:28:08;100052.28;;;20.03;55.80
62800;BME280;48842;51.046;13.796;2023-06-19T03:30:33;100058.41;;;20.05;55.98
62800;BME280;48842;51.046;13.796;2023-06-19T03:32:58;100055.75;;;20.05;55.81
62800;BME280;48842;51.046;13.796;2023-06-19T03:35:23;100060.16;;;20.07;55.97
62800;BME280;48842;51.046;13.796;2023-06-19T03:37:49;100056.53;;;20.08;55.64
62800;BME280;48842;51.046;13.796;2023-06-19T03:40:14;100054.63;;;20.11;55.97
62800;BME280;48842;51.046;13.796;2023-06-19T03:42:40;100051.00;;;20.14;55.79
62800;BME280;48842;51.046;13.796;2023-06-19T03:45:06;100054.44;;;20.16;55.97
62800;BME280;48842;51.046;13.796;2023-06-19T03:47:31;100055.25;;;20.18;55.77
62800;BME280;48842;51.046;13.796;2023-06-19T03:49:57;100057.81;;;20.21;55.97
62800;BME280;48842;51.046;13.796;2023-06-19T03:52:22;100042.69;;;20.21;55.68
62800;BME280;48842;51.046;13.796;2023-06-19T03:54:47;100050.63;;;20.23;55.71
62800;BME280;48842;51.046;13.796;2023-06-19T03:57:13;100047.16;;;20.21;55.61
62800;BME280;48842;51.046;13.796;2023-06-19T03:59:38;100060.47;;;20.21;55.71
62800;BME280;48842;51.046;13.796;2023-06-19T04:02:03;100047.22;;;20.19;55.74
62800;BME280;48842;51.046;13.796;2023-06-19T04:04:29;100055.16;;;20.21;55.78
62800;BME280;48842;51.046;13.796;2023-06-19T04:06:54;100057.69;;;20.24;55.94
62800;BME280;48842;51.046;13.796;2023-06-19T04:09:19;100051.34;;;20.27;55.65
62800;BME280;48842;51.046;13.796;2023-06-19T04:11:44;100058.16;;;20.34;55.18
62800;BME280;48842;51.046;13.796;2023-06-19T04:14:10;100055.31;;;20.38;55.59
62800;BME280;48842;51.046;13.796;2023-06-19T04:16:35;100054.09;;;20.46;54.96
62800;BME280;48842;51.046;13.796;2023-06-19T04:19:01;100052.19;;;20.49;55.18
62800;BME280;48842;51.046;13.796;2023-06-19T04:21:26;100044.84;;;20.56;55.05
62800;BME280;48842;51.046;13.796;2023-06-19T04:23:51;100043.81;;;20.58;55.14
62800;BME280;48842;51.046;13.796;2023-06-19T04:26:16;100046.28;;;20.63;55.01
62800;BME280;48842;51.046;13.796;2023-06-19T04:28:43;100047.00;;;20.68;54.85
62800;BME280;48842;51.046;13.796;2023-06-19T04:31:08;100053.66;;;20.79;54.68
62800;BME280;48842;51.046;13.796;2023-06-19T04:33:33;100064.72;;;20.90;54.33
62800;BME280;48842;51.046;13.796;2023-06-19T04:35:59;100065.22;;;20.98;54.31
62800;BME280;48842;51.046;13.796;2023-06-19T04:38:25;100069.28;;;21.07;54.13
62800;BME280;48842;51.046;13.796;2023-06-19T04:40:51;100067.22;;;21.14;54.12
62800;BME280;48842;51.046;13.796;2023-06-19T04:43:17;100061.63;;;21.20;53.99
62800;BME280;48842;51.046;13.796;2023-06-19T04:45:42;100072.06;;;21.24;53.67
62800;BME280;48842;51.046;13.796;2023-06-19T04:48:07;100074.53;;;21.29;53.87
62800;BME280;48842;51.046;13.796;2023-06-19T04:50:33;100059.28;;;21.33;53.92
62800;BME280;48842;51.046;13.796;2023-06-19T04:52:58;100053.72;;;21.37;53.92
62800;BME280;48842;51.046;13.796;2023-06-19T04:55:23;100054.47;;;21.41;53.99
62800;BME280;48842;51.046;13.796;2023-06-19T04:57:50;100054.25;;;21.45;53.64
62800;BME280;48842;51.046;13.796;2023-06-19T05:00:16;100058.47;;;21.51;53.83
62800;BME280;48842;51.046;13.796;2023-06-19T05:02:44;100054.66;;;21.57;53.60
62800;BME280;48842;51.046;13.796;2023-06-19T05:05:10;100060.63;;;21.62;53.58
62800;BME280;48842;51.046;13.796;2023-06-19T05:07:36;100060.47;;;21.65;53.43
62800;BME280;48842;51.046;13.796;2023-06-19T05:10:01;100066.47;;;21.70;53.37
62800;BME280;48842;51.046;13.796;2023-06-19T05:12:27;100070.66;;;21.76;53.38
62800;BME280;48842;51.046;13.796;2023-06-19T05:14:52;100069.63;;;21.78;53.48
62800;BME280;48842;51.046;13.796;2023-06-19T05:17:17;100073.88;;;21.83;53.16
62800;BME280;48842;51.046;13.796;2023-06-19T05:19:43;100071.94;;;21.86;52.95
62800;BME280;48842;51.046;13.796;2023-06-19T05:22:08;100072.59;;;21.91;53.20
62800;BME280;48842;51.046;13.796;2023-06-19T05:24:33;100067.09;;;21.94;53.22
62800;BME280;48842;51.046;13.796;2023-06-19T05:26:58;100075.84;;;21.98;53.21
62800;BME280;48842;51.046;13.796;2023-06-19T05:29:24;100069.41;;;22.02;53.11
62800;BME280;48842;51.046;13.796;2023-06-19T05:31:49;100072.72;;;22.07;53.39
62800;BME280;48842;51.046;13.796;2023-06-19T05:34:15;100066.31;;;22.11;53.28
62800;BME280;48842;51.046;13.796;2023-06-19T05:36:40;100067.81;;;22.17;53.26
62800;BME280;48842;51.046;13.796;2023-06-19T05:39:05;100072.06;;;22.21;53.38
62800;BME280;48842;51.046;13.796;2023-06-19T05:41:30;100069.16;;;22.26;53.02
62800;BME280;48842;51.046;13.796;2023-06-19T05:43:56;100073.34;;;22.31;53.25
62800;BME280;48842;51.046;13.796;2023-06-19T05:46:21;100074.16;;;22.34;53.23
62800;BME280;48842;51.046;13.796;2023-06-19T05:48:47;100074.88;;;22.37;53.42
62800;BME280;48842;51.046;13.796;2023-06-19T05:51:12;100072.13;;;22.39;53.31
62800;BME280;48842;51.046;13.796;2023-06-19T05:53:37;100072.03;;;22.40;53.35
62800;BME280;48842;51.046;13.796;2023-06-19T05:56:03;100071.91;;;22.43;53.50
62800;BME280;48842;51.046;13.796;2023-06-19T05:58:30;100071.81;;;22.45;53.70
62800;BME280;48842;51.046;13.796;2023-06-19T06:00:55;100075.19;;;22.48;53.56
62800;BME280;48842;51.046;13.796;2023-06-19T06:03:24;100071.50;;;22.51;53.77
62800;BME280;48842;51.046;13.796;2023-06-19T06:05:50;100071.41;;;22.53;53.76
62800;BME280;48842;51.046;13.796;2023-06-19T06:08:15;100073.06;;;22.55;53.60
62800;BME280;48842;51.046;13.796;2023-06-19T06:10:40;100083.59;;;22.58;53.65
62800;BME280;48842;51.046;13.796;2023-06-19T06:13:06;100079.91;;;22.61;53.64
62800;BME280;48842;51.046;13.796;2023-06-19T06:15:31;100080.53;;;22.66;53.63
62800;BME280;48842;51.046;13.796;2023-06-19T06:17:56;100083.84;;;22.71;53.84
62800;BME280;48842;51.046;13.796;2023-06-19T06:20:21;100081.72;;;22.78;53.42
62800;BME280;48842;51.046;13.796;2023-06-19T06:22:47;100082.28;;;22.84;53.49
62800;BME280;48842;51.046;13.796;2023-06-19T06:25:12;100080.16;;;22.91;53.13
62800;BME280;48842;51.046;13.796;2023-06-19T06:27:37;100082.50;;;22.97;52.70
62800;BME280;48842;51.046;13.796;2023-06-19T06:30:03;100094.53;;;23.06;53.18
62800;BME280;48842;51.046;13.796;2023-06-19T06:32:28;100080.88;;;23.12;53.96
62800;BME280;48842;51.046;13.796;2023-06-19T06:34:54;100099.09;;;23.22;53.27
62800;BME280;48842;51.046;13.796;2023-06-19T06:37:19;100094.28;;;23.28;52.49
62800;BME280;48842;51.046;13.796;2023-06-19T06:39:50;100097.53;;;23.35;52.46
62800;BME280;48842;51.046;13.796;2023-06-19T06:42:16;100097.34;;;23.38;52.17
62800;BME280;48842;51.046;13.796;2023-06-19T06:44:41;100095.44;;;23.40;52.40
62800;BME280;48842;51.046;13.796;2023-06-19T06:47:06;100093.56;;;23.42;52.25
62800;BME280;48842;51.046;13.796;2023-06-19T06:49:32;100096.25;;;23.42;52.34
62800;BME280;48842;51.046;13.796;2023-06-19T06:51:57;100097.94;;;23.43;52.50
62800;BME280;48842;51.046;13.796;2023-06-19T06:54:22;100105.72;;;23.48;52.58
62800;BME280;48842;51.046;13.796;2023-06-19T06:56:48;100095.75;;;23.51;51.82
62800;BME280;48842;51.046;13.796;2023-06-19T06:59:24;100100.75;;;23.58;51.59
62800;BME280;48842;51.046;13.796;2023-06-19T07:01:49;100093.19;;;23.66;50.99
62800;BME280;48842;51.046;13.796;2023-06-19T07:04:15;100099.84;;;23.75;50.79
62800;BME280;48842;51.046;13.796;2023-06-19T07:06:40;100098.47;;;23.83;49.66
62800;BME280;48842;51.046;13.796;2023-06-19T07:09:05;100100.66;;;23.93;48.82
62800;BME280;48842;51.046;13.796;2023-06-19T07:11:30;100099.38;;;24.00;48.24
62800;BME280;48842;51.046;13.796;2023-06-19T07:13:56;100100.66;;;24.09;47.94
62800;BME280;48842;51.046;13.796;2023-06-19T07:16:21;100100.13;;;24.18;47.54
62800;BME280;48842;51.046;13.796;2023-06-19T07:18:46;100097.91;;;24.26;47.32
62800;BME280;48842;51.046;13.796;2023-06-19T07:21:12;100096.50;;;24.35;47.21
62800;BME280;48842;51.046;13.796;2023-06-19T07:23:43;100097.88;;;24.42;46.60
62800;BME280;48842;51.046;13.796;2023-06-19T07:26:10;100101.94;;;24.49;46.06
62800;BME280;48842;51.046;13.796;2023-06-19T07:28:35;100107.72;;;24.57;46.24
62800;BME280;48842;51.046;13.796;2023-06-19T07:31:03;100110.81;;;24.66;45.75
62800;BME280;48842;51.046;13.796;2023-06-19T07:33:29;100103.22;;;24.74;45.94
62800;BME280;48842;51.046;13.796;2023-06-19T07:35:55;100100.91;;;24.82;45.72
62800;BME280;48842;51.046;13.796;2023-06-19T07:38:20;100098.66;;;24.90;45.27
62800;BME280;48842;51.046;13.796;2023-06-19T07:40:45;100100.00;;;24.98;45.16
62800;BME280;48842;51.046;13.796;2023-06-19T07:43:11;100094.28;;;25.04;44.71
62800;BME280;48842;51.046;13.796;2023-06-19T07:45:36;100107.03;;;25.15;44.58
62800;BME280;48842;51.046;13.796;2023-06-19T07:48:01;100102.94;;;25.23;44.25
62800;BME280;48842;51.046;13.796;2023-06-19T07:50:27;100103.25;;;25.33;44.22
62800;BME280;48842;51.046;13.796;2023-06-19T07:52:52;100105.72;;;25.36;44.08
62800;BME280;48842;51.046;13.796;2023-06-19T07:55:18;100102.09;;;25.37;44.21
62800;BME280;48842;51.046;13.796;2023-06-19T07:57:43;100108.34;;;25.38;44.24
62800;BME280;48842;51.046;13.796;2023-06-19T08:00:09;100109.22;;;25.38;44.13
62800;BME280;48842;51.046;13.796;2023-06-19T08:02:37;100102.78;;;25.41;44.05
62800;BME280;48842;51.046;13.796;2023-06-19T08:05:03;100113.13;;;25.47;44.29
62800;BME280;48842;51.046;13.796;2023-06-19T08:07:28;100108.22;;;25.54;44.30
62800;BME280;48842;51.046;13.796;2023-06-19T08:09:53;100111.50;;;25.59;44.21
62800;BME280;48842;51.046;13.796;2023-06-19T08:12:19;100112.00;;;25.66;44.24
62800;BME280;48842;51.046;13.796;2023-06-19T08:14:44;100108.91;;;25.72;43.99
62800;BME280;48842;51.046;13.796;2023-06-19T08:17:09;100109.56;;;25.75;43.81
62800;BME280;48842;51.046;13.796;2023-06-19T08:19:34;100106.59;;;25.80;43.63
62800;BME280;48842;51.046;13.796;2023-06-19T08:21:59;100110.81;;;25.84;42.89
62800;BME280;48842;51.046;13.796;2023-06-19T08:24:25;100110.59;;;25.87;43.20
62800;BME280;48842;51.046;13.796;2023-06-19T08:26:50;100115.78;;;25.90;43.09
62800;BME280;48842;51.046;13.796;2023-06-19T08:29:17;100120.28;;;25.90;43.44
62800;BME280;48842;51.046;13.796;2023-06-19T08:31:42;100112.34;;;25.88;43.83
62800;BME280;48842;51.046;13.796;2023-06-19T08:34:08;100118.66;;;25.87;43.71
62800;BME280;48842;51.046;13.796;2023-06-19T08:36:35;100117.91;;;25.85;43.72
62800;BME280;48842;51.046;13.796;2023-06-19T08:39:00;100123.56;;;25.81;43.48
62800;BME280;48842;51.046;13.796;2023-06-19T08:41:25;100121.28;;;25.74;43.55
62800;BME280;48842;51.046;13.796;2023-06-19T08:43:51;100127.00;;;25.68;43.45
62800;BME280;48842;51.046;13.796;2023-06-19T08:46:18;100115.81;;;25.61;43.52
62800;BME280;48842;51.046;13.796;2023-06-19T08:48:44;100123.28;;;25.56;43.46
62800;BME280;48842;51.046;13.796;2023-06-19T08:51:10;100124.63;;;25.49;43.56
62800;BME280;48842;51.046;13.796;2023-06-19T08:53:43;100131.06;;;25.47;43.74
62800;BME280;48842;51.046;13.796;2023-06-19T08:56:08;100122.31;;;25.43;44.37
62800;BME280;48842;51.046;13.796;2023-06-19T08:58:34;100120.59;;;25.42;44.77
62800;BME280;48842;51.046;13.796;2023-06-19T09:00:59;100125.97;;;25.42;44.72
62800;BME280;48842;51.046;13.796;2023-06-19T09:03:24;100125.75;;;25.45;45.21
62800;BME280;48842;51.046;13.796;2023-06-19T09:05:50;100122.91;;;25.48;45.25
62800;BME280;48842;51.046;13.796;2023-06-19T09:08:19;100127.31;;;25.49;45.12
62800;BME280;48842;51.046;13.796;2023-06-19T09:10:55;100129.78;;;25.52;44.76
62800;BME280;48842;51.046;13.796;2023-06-19T09:13:20;100130.59;;;25.54;44.41
62800;BME280;48842;51.046;13.796;2023-06-19T09:15:46;100133.16;;;25.56;44.37
62800;BME280;48842;51.046;13.796;2023-06-19T09:18:11;100132.13;;;25.58;44.47
62800;BME280;48842;51.046;13.796;2023-06-19T09:20:39;100130.09;;;25.62;44.48
62800;BME280;48842;51.046;13.796;2023-06-19T09:23:10;100131.72;;;25.65;44.49
62800;BME280;48842;51.046;13.796;2023-06-19T09:25:52;100124.53;;;25.65;44.73
62800;BME280;48842;51.046;13.796;2023-06-19T09:28:19;100128.09;;;25.66;44.53
62800;BME280;48842;51.046;13.796;2023-06-19T09:33:20;100138.25;;;25.60;44.53
62800;BME280;48842;51.046;13.796;2023-06-19T09:35:45;100134.91;;;25.57;44.76
62800;BME280;48842;51.046;13.796;2023-06-19T09:38:11;100128.84;;;25.53;45.16
62800;BME280;48842;51.046;13.796;2023-06-19T09:40:37;100130.78;;;25.51;45.66
62800;BME280;48842;51.046;13.796;2023-06-19T09:43:04;100130.00;;;25.49;45.46
62800;BME280;48842;51.046;13.796;2023-06-19T09:45:32;100119.44;;;25.46;45.58
62800;BME280;48842;51.046;13.796;2023-06-19T09:47:58;100130.19;;;25.46;45.64
62800;BME280;48842;51.046;13.796;2023-06-19T09:50:26;100125.97;;;25.42;45.72
62800;BME280;48842;51.046;13.796;2023-06-19T09:52:52;100130.56;;;25.40;45.75
62800;BME280;48842;51.046;13.796;2023-06-19T09:55:22;100120.97;;;25.36;46.03
62800;BME280;48842;51.046;13.796;2023-06-19T09:57:50;100131.50;;;25.39;46.04
62800;BME280;48842;51.046;13.796;2023-06-19T10:00:16;100126.94;;;25.41;46.13
62800;BME280;48842;51.046;13.796;2023-06-19T10:02:48;100128.44;;;25.45;46.04
62800;BME280;48842;51.046;13.796;2023-06-19T10:05:13;100123.88;;;25.47;46.01
62800;BME280;48842;51.046;13.796;2023-06-19T10:07:42;100124.53;;;25.51;45.86
62800;BME280;48842;51.046;13.796;2023-06-19T10:10:22;100117.16;;;25.54;45.53
62800;BME280;48842;51.046;13.796;2023-06-19T10:12:49;100129.34;;;25.60;45.19
62800;BME280;48842;51.046;13.796;2023-06-19T10:15:23;100128.94;;;25.66;45.41
62800;BME280;48842;51.046;13.796;2023-06-19T10:17:54;100125.78;;;25.74;45.16
62800;BME280;48842;51.046;13.796;2023-06-19T10:20:25;100122.59;;;25.82;45.17
62800;BME280;48842;51.046;13.796;2023-06-19T10:23:11;100119.53;;;25.88;44.85
62800;BME280;48842;51.046;13.796;2023-06-19T10:25:38;100116.47;;;25.94;44.88
62800;BME280;48842;51.046;13.796;2023-06-19T10:28:04;100125.88;;;26.01;44.68
62800;BME280;48842;51.046;13.796;2023-06-19T10:30:33;100114.00;;;26.05;44.35
62800;BME280;48842;51.046;13.796;2023-06-19T10:32:59;100110.06;;;26.11;44.58
62800;BME280;48842;51.046;13.796;2023-06-19T10:35:27;100103.31;;;26.18;43.80
62800;BME280;48842;51.046;13.796;2023-06-19T10:37:53;100103.75;;;26.25;43.91
62800;BME280;48842;51.046;13.796;2023-06-19T10:40:19;100107.66;;;26.34;43.84
62800;BME280;48842;51.046;13.796;2023-06-19T10:42:44;100109.72;;;26.43;43.70
62800;BME280;48842;51.046;13.796;2023-06-19T10:45:12;100102.41;;;26.59;43.51
62800;BME280;48842;51.046;13.796;2023-06-19T10:47:39;100098.31;;;26.81;43.40
62800;BME280;48842;51.046;13.796;2023-06-19T10:50:14;100085.09;;;27.04;42.88
62800;BME280;48842;51.046;13.796;2023-06-19T10:52:41;100088.97;;;27.25;42.59
62800;BME280;48842;51.046;13.796;2023-06-19T10:55:07;100091.59;;;27.40;42.16
62800;BME280;48842;51.046;13.796;2023-06-19T10:57:32;100083.19;;;27.44;42.18
62800;BME280;48842;51.046;13.796;2023-06-19T10:59:58;100081.25;;;27.46;41.85
62800;BME280;48842;51.046;13.796;2023-06-19T11:02:24;100085.88;;;27.44;41.80
62800;BME280;48842;51.046;13.796;2023-06-19T11:04:54;100088.56;;;27.44;41.91
62800;BME280;48842;51.046;13.796;2023-06-19T11:07:19;100098.25;;;27.47;42.02
62800;BME280;48842;51.046;13.796;2023-06-19T11:09:45;100090.72;;;27.52;41.51
62800;BME280;48842;51.046;13.796;2023-06-19T11:12:11;100091.16;;;27.59;41.73
62800;BME280;48842;51.046;13.796;2023-06-19T11:14:36;100091.53;;;27.65;41.86
62800;BME280;48842;51.046;13.796;2023-06-19T11:17:05;100075.72;;;27.74;41.40
62800;BME280;48842;51.046;13.796;2023-06-19T11:19:31;100084.09;;;27.82;41.60
62800;BME280;48842;51.046;13.796;2023-06-19T11:21:58;100082.88;;;27.99;41.17
62800;BME280;48842;51.046;13.796;2023-06-19T11:24:26;100084.72;;;28.23;40.49
62800;BME280;48842;51.046;13.796;2023-06-19T11:26:52;100086.84;;;28.43;39.75
62800;BME280;48842;51.046;13.796;2023-06-19T11:29:30;100085.03;;;28.55;39.05
62800;BME280;48842;51.046;13.796;2023-06-19T11:32:09;100085.97;;;28.67;38.38
62800;BME280;48842;51.046;13.796;2023-06-19T11:34:36;100090.28;;;28.81;38.28
62800;BME280;48842;51.046;13.796;2023-06-19T11:37:14;100079.06;;;28.98;37.95
62800;BME280;48842;51.046;13.796;2023-06-19T11:39:42;100068.06;;;29.13;38.09
62800;BME280;48842;51.046;13.796;2023-06-19T11:42:08;100075.34;;;29.23;37.88
62800;BME280;48842;51.046;13.796;2023-06-19T11:44:33;100064.78;;;29.32;37.51
62800;BME280;48842;51.046;13.796;2023-06-19T11:47:00;100057.19;;;29.37;37.41
62800;BME280;48842;51.046;13.796;2023-06-19T11:49:25;100059.41;;;29.43;36.73
62800;BME280;48842;51.046;13.796;2023-06-19T11:51:51;100052.53;;;29.50;37.09
62800;BME280;48842;51.046;13.796;2023-06-19T11:54:16;100049.34;;;29.56;36.89
62800;BME280;48842;51.046;13.796;2023-06-19T11:56:43;100046.00;;;29.64;36.58
62800;BME280;48842;51.046;13.796;2023-06-19T11:59:08;100048.69;;;29.75;36.41
62800;BME280;48842;51.046;13.796;2023-06-19T12:01:35;100046.75;;;29.89;35.96
62800;BME280;48842;51.046;13.796;2023-06-19T12:04:01;100047.22;;;30.05;35.78
62800;BME280;48842;51.046;13.796;2023-06-19T12:06:27;100043.69;;;30.26;35.41
62800;BME280;48842;51.046;13.796;2023-06-19T12:08:52;100046.31;;;30.49;35.69
62800;BME280;48842;51.046;13.796;2023-06-19T12:11:17;100043.78;;;30.68;35.00
62800;BME280;48842;51.046;13.796;2023-06-19T12:13:43;100042.06;;;30.88;34.93
62800;BME280;48842;51.046;13.796;2023-06-19T12:16:11;100034.22;;;31.06;34.08
62800;BME280;48842;51.046;13.796;2023-06-19T12:18:37;100035.84;;;31.19;33.50
62800;BME280;48842;51.046;13.796;2023-06-19T12:21:03;100027.66;;;31.30;33.27
62800;BME280;48842;51.046;13.796;2023-06-19T12:23:28;100020.13;;;31.43;33.20
62800;BME280;48842;51.046;13.796;2023-06-19T12:25:54;100020.50;;;31.60;32.48
62800;BME280;48842;51.046;13.796;2023-06-19T12:28:19;100022.25;;;31.80;31.77
62800;BME280;48842;51.046;13.796;2023-06-19T12:30:45;100026.59;;;32.02;30.92
62800;BME280;48842;51.046;13.796;2023-06-19T12:33:10;100017.50;;;32.13;30.79
62800;BME280;48842;51.046;13.796;2023-06-19T12:35:39;100020.38;;;32.22;30.57
62800;BME280;48842;51.046;13.796;2023-06-19T12:38:05;100021.38;;;32.30;30.53